Terminal Aerodrome Forecast
Issued by NWS

Home | Current Version | Previous Version | Graphics & Text | Print | Product List | Glossary On
Versions: 1 2 3 4 5 6 7 8 9 10 11 12 13 14 15 16 17 18 19 20
000
FTUS42 KMHX 222321
TAFOAJ
TAF
KOAJ 222321Z 2300/2324 20006KT P6SM VCSH SCT050 BKN090 OVC120
     FM230900 VRB04KT 5SM -SHRA SCT015 OVC060
     FM231500 17007KT 5SM -SHRA VCTS OVC025CB
      AMD LTD TO CLD VIS AND WIND=

USA.gov is the U.S. government's official web portal to all federal, state and local government web resources and services.